Time;durP1;ratioP1;P1;durP2;ratioP2;P2;SDS_P1;SDS_P2;PMS_P1;PMS_P2;Temp;Humidity;BMP_temperature;BMP_pressure;BME280_temperature;BME280_humidity;BME280_pressure;Samples;Min_cycle;Max_cycle;Signal;HPM_P1;HPM_P2
2022/06/29 00:01:55;;;;;;;21.98;7.88;;;23.40;99.90;;;;;;4971836;28;20043;-55
2022/06/29 00:04:21;;;;;;;18.48;7.75;;;23.40;99.90;;;;;;4966178;28;20393;-57
2022/06/29 00:06:48;;;;;;;19.35;8.55;;;23.40;99.90;;;;;;4955261;28;20036;-52
2022/06/29 00:09:13;;;;;;;25.67;8.27;;;23.40;99.90;;;;;;4955284;28;20038;-56
2022/06/29 00:11:39;;;;;;;15.27;6.95;;;23.50;99.90;;;;;;4954758;28;20023;-56
2022/06/29 00:14:05;;;;;;;21.83;5.82;;;23.50;99.90;;;;;;4966314;28;20027;-57
2022/06/29 00:16:31;;;;;;;14.95;5.13;;;23.40;99.90;;;;;;4970005;28;20023;-58
2022/06/29 00:18:57;;;;;;;15.38;4.32;;;23.40;99.90;;;;;;4969966;28;20038;-58
2022/06/29 00:21:23;;;;;;;15.60;4.45;;;23.40;99.90;;;;;;4973135;28;20038;-57
2022/06/29 00:23:49;;;;;;;12.70;5.07;;;23.40;99.90;;;;;;4966976;28;20031;-58
2022/06/29 00:26:15;;;;;;;14.63;5.00;;;23.40;99.90;;;;;;4962034;28;20038;-58
2022/06/29 00:28:40;;;;;;;14.88;5.28;;;23.40;99.90;;;;;;4962566;28;20027;-58
2022/06/29 00:31:06;;;;;;;12.02;5.00;;;23.40;99.90;;;;;;4954764;28;20425;-58
2022/06/29 00:33:32;;;;;;;14.38;4.43;;;23.40;99.90;;;;;;4971333;28;20022;-58
2022/06/29 00:35:59;;;;;;;21.75;5.35;;;23.40;99.90;;;;;;4972794;28;20377;-57
2022/06/29 00:38:25;;;;;;;15.60;5.13;;;23.40;99.90;;;;;;4965353;28;20495;-57
2022/06/29 00:40:51;;;;;;;19.35;5.25;;;23.40;99.90;;;;;;4964549;28;20054;-55
2022/06/29 00:43:16;;;;;;;16.00;5.28;;;23.40;99.90;;;;;;4972751;28;20559;-57
2022/06/29 00:45:42;;;;;;;9.48;5.05;;;23.40;99.90;;;;;;4954575;28;20031;-55
2022/06/29 00:48:08;;;;;;;15.10;5.63;;;23.40;99.90;;;;;;4954263;28;20027;-55
2022/06/29 00:50:37;;;;;;;17.70;5.75;;;23.40;99.90;;;;;;4970673;28;20034;-57
2022/06/29 00:53:05;;;;;;;17.95;6.68;;;23.40;99.90;;;;;;4970759;28;20031;-57
2022/06/29 00:55:35;;;;;;;16.02;5.53;;;23.40;99.90;;;;;;4970967;28;20023;-54
2022/06/29 00:58:05;;;;;;;17.33;5.53;;;23.40;99.90;;;;;;4971479;28;20396;-52
2022/06/29 01:00:32;;;;;;;16.23;4.97;;;23.40;99.90;;;;;;4972777;28;20484;-57
2022/06/29 01:03:02;;;;;;;17.05;5.47;;;23.40;99.90;;;;;;4972346;28;20520;-57
2022/06/29 01:05:30;;;;;;;16.88;5.78;;;23.40;99.90;;;;;;4965000;28;20039;-55
2022/06/29 01:07:57;;;;;;;15.85;5.30;;;23.40;99.90;;;;;;4963030;28;20057;-54
2022/06/29 01:10:23;;;;;;;15.07;5.80;;;23.40;99.90;;;;;;4971951;28;20130;-54
2022/06/29 01:12:53;;;;;;;26.33;8.30;;;23.40;99.90;;;;;;4972246;28;20311;-57
2022/06/29 01:15:19;;;;;;;21.77;7.97;;;23.40;99.90;;;;;;4962599;28;20037;-59
2022/06/29 01:17:45;;;;;;;25.30;8.63;;;23.40;99.90;;;;;;4953626;28;20027;-54
2022/06/29 01:20:12;;;;;;;16.05;7.43;;;23.40;99.90;;;;;;4970270;28;20488;-54
2022/06/29 01:22:39;;;;;;;25.92;9.45;;;23.40;99.90;;;;;;4971439;28;20035;-56
2022/06/29 01:25:06;;;;;;;25.00;9.00;;;23.40;99.90;;;;;;4972033;28;20023;-56
2022/06/29 01:27:32;;;;;;;40.60;9.57;;;23.30;99.90;;;;;;4972006;28;20019;-53
2022/06/29 01:29:58;;;;;;;24.10;8.35;;;23.30;99.90;;;;;;4963819;28;20042;-55
2022/06/29 01:32:24;;;;;;;20.67;7.93;;;23.20;99.90;;;;;;4961013;28;20027;-57
2022/06/29 01:34:52;;;;;;;22.17;8.68;;;23.20;99.90;;;;;;4961835;28;20033;-54
2022/06/29 01:37:18;;;;;;;22.67;8.82;;;23.20;99.90;;;;;;4971128;28;20034;-58
2022/06/29 01:39:44;;;;;;;22.25;8.15;;;23.10;99.90;;;;;;4971012;28;20043;-52
2022/06/29 01:42:11;;;;;;;25.85;9.73;;;23.00;99.90;;;;;;4971575;28;20031;-54
2022/06/29 01:44:37;;;;;;;24.92;8.27;;;22.90;99.90;;;;;;4969870;28;20030;-57
2022/06/29 01:47:03;;;;;;;25.27;9.30;;;22.90;99.90;;;;;;4952079;28;20027;-54
2022/06/29 01:49:29;;;;;;;29.02;9.05;;;23.00;99.90;;;;;;4966668;28;20161;-55
2022/06/29 01:51:56;;;;;;;23.02;7.18;;;23.00;99.90;;;;;;4969870;28;20114;-53
2022/06/29 01:54:22;;;;;;;26.77;8.30;;;23.00;99.90;;;;;;4958847;28;20031;-55
2022/06/29 01:56:48;;;;;;;18.73;7.15;;;23.10;99.90;;;;;;4953587;28;20037;-55
2022/06/29 01:59:14;;;;;;;23.55;7.20;;;23.10;99.90;;;;;;4959016;28;20031;-55
2022/06/29 02:01:40;;;;;;;15.52;6.75;;;23.10;99.90;;;;;;4960987;28;20425;-55
2022/06/29 02:04:06;;;;;;;18.27;6.68;;;23.10;99.90;;;;;;4954480;28;20033;-56
2022/06/29 02:06:32;;;;;;;14.60;6.00;;;23.10;99.90;;;;;;4971034;28;20449;-57
2022/06/29 02:08:59;;;;;;;13.27;6.13;;;23.20;99.90;;;;;;4971339;28;20062;-55
2022/06/29 02:11:25;;;;;;;17.13;5.28;;;23.20;99.90;;;;;;4969645;28;20085;-55
2022/06/29 02:13:51;;;;;;;14.57;5.40;;;23.20;99.90;;;;;;4973003;28;20027;-54
2022/06/29 02:16:17;;;;;;;13.85;5.20;;;23.40;99.90;;;;;;4961619;28;20046;-53
2022/06/29 02:18:43;;;;;;;10.57;5.03;;;23.50;99.90;;;;;;4967345;28;20026;-54
2022/06/29 02:21:09;;;;;;;11.02;4.00;;;23.60;99.90;;;;;;4952603;28;20031;-54
2022/06/29 02:23:35;;;;;;;16.52;4.38;;;23.70;99.90;;;;;;4952790;28;20168;-55
2022/06/29 02:26:01;;;;;;;12.57;5.05;;;23.80;99.90;;;;;;4952874;28;20034;-54
2022/06/29 02:28:27;;;;;;;10.63;3.88;;;23.90;99.90;;;;;;4952965;28;20024;-55
2022/06/29 02:36:21;;;;;;;16.02;4.45;;;24.00;99.90;;;;;;4953255;28;20110;-53
2022/06/29 02:38:47;;;;;;;9.43;3.50;;;24.00;99.90;;;;;;4952671;28;20028;-53
2022/06/29 02:41:13;;;;;;;9.57;4.60;;;24.00;99.90;;;;;;4960559;28;20027;-53
2022/06/29 02:43:39;;;;;;;11.73;4.30;;;24.00;99.90;;;;;;4969237;28;20093;-54
2022/06/29 02:46:04;;;;;;;10.68;4.25;;;24.00;99.90;;;;;;4964326;28;20033;-54
2022/06/29 02:48:32;;;;;;;12.48;4.88;;;24.00;99.90;;;;;;4961269;28;20155;-54
2022/06/29 02:50:58;;;;;;;;;;;24.00;99.90;;;;;;4971745;28;20038;-53
2022/06/29 02:53:24;;;;;;;7.22;3.65;;;24.10;99.90;;;;;;4975600;28;19913;-53
2022/06/29 02:55:50;;;;;;;9.25;3.80;;;24.10;99.90;;;;;;4967740;28;20468;-54
2022/06/29 02:58:15;;;;;;;10.95;3.60;;;24.10;99.90;;;;;;4968496;28;20400;-53
2022/06/29 03:00:41;;;;;;;12.30;4.50;;;24.10;99.90;;;;;;4975803;28;20038;-56
2022/06/29 03:03:07;;;;;;;7.40;3.55;;;24.10;99.90;;;;;;4975678;28;20030;-56
2022/06/29 03:05:33;;;;;;;12.20;3.97;;;24.10;99.90;;;;;;4975434;28;20456;-57
2022/06/29 03:07:58;;;;;;;7.85;3.50;;;24.10;99.90;;;;;;4972466;28;20023;-57
2022/06/29 03:10:24;;;;;;;14.73;4.63;;;24.10;99.90;;;;;;4975217;28;20150;-56
2022/06/29 03:12:50;;;;;;;8.05;3.85;;;24.10;99.90;;;;;;4975302;28;20102;-56
2022/06/29 03:15:16;;;;;;;10.48;4.05;;;24.10;99.90;;;;;;4975476;28;20138;-56
2022/06/29 03:17:41;;;;;;;15.07;5.20;;;24.10;99.90;;;;;;4975337;28;20038;-57
2022/06/29 03:20:08;;;;;;;12.68;4.88;;;24.10;99.90;;;;;;4974961;28;20035;-56
2022/06/29 03:22:34;;;;;;;9.38;4.68;;;24.10;99.90;;;;;;4975265;28;20082;-53
2022/06/29 03:25:00;;;;;;;12.70;5.70;;;24.20;99.90;;;;;;4975169;28;20031;-55
2022/06/29 03:27:26;;;;;;;22.08;5.95;;;24.10;99.90;;;;;;4975416;28;20481;-54
2022/06/29 03:29:52;;;;;;;18.00;6.95;;;24.00;99.90;;;;;;4975057;28;20022;-52
2022/06/29 03:32:18;;;;;;;18.58;5.88;;;23.90;99.90;;;;;;4984362;28;20101;-54
2022/06/29 03:34:43;;;;;;;9.40;5.10;;;24.00;99.90;;;;;;4980967;28;20391;-53
2022/06/29 03:37:09;;;;;;;14.48;5.68;;;23.90;99.90;;;;;;4967206;28;20026;-52
2022/06/29 03:39:35;;;;;;;15.95;5.35;;;23.90;99.90;;;;;;4984531;28;20062;-54
2022/06/29 03:42:02;;;;;;;22.05;6.50;;;23.90;99.90;;;;;;4974849;28;20023;-53
2022/06/29 03:44:27;;;;;;;12.98;5.82;;;24.00;99.90;;;;;;4975026;28;20495;-52
2022/06/29 03:46:53;;;;;;;14.65;4.78;;;24.00;99.90;;;;;;4974958;28;20027;-54
2022/06/29 03:49:19;;;;;;;23.30;6.55;;;23.90;99.90;;;;;;4974721;28;20046;-54
2022/06/29 03:51:44;;;;;;;17.15;5.90;;;24.00;99.90;;;;;;4966873;28;20023;-54
2022/06/29 03:54:10;;;;;;;15.65;6.72;;;23.90;99.90;;;;;;4969031;28;20038;-53
2022/06/29 03:56:36;;;;;;;19.88;6.30;;;23.80;99.90;;;;;;4978708;28;20022;-53
2022/06/29 03:59:05;;;;;;;16.48;6.28;;;23.80;99.90;;;;;;4978458;28;20110;-53
2022/06/29 04:01:30;;;;;;;16.17;6.75;;;23.80;99.90;;;;;;4973644;28;20050;-52
2022/06/29 04:03:56;;;;;;;18.80;7.35;;;23.80;99.90;;;;;;4974716;28;20019;-53
2022/06/29 04:06:22;;;;;;;17.88;6.65;;;23.80;99.90;;;;;;4974147;28;20425;-53
2022/06/29 04:08:48;;;;;;;16.90;7.95;;;23.70;99.90;;;;;;4984858;28;20030;-52
2022/06/29 04:13:58;;;;;;;20.83;8.95;;;23.70;99.90;;;;;;4974520;28;20042;-53
2022/06/29 04:16:23;;;;;;;24.83;7.60;;;23.70;99.90;;;;;;4974279;28;20031;-55
2022/06/29 04:18:49;;;;;;;20.48;7.32;;;23.60;99.90;;;;;;4974294;28;20034;-55
2022/06/29 04:21:15;;;;;;;20.15;7.22;;;23.60;99.90;;;;;;4974250;28;20405;-53
2022/06/29 04:23:41;;;;;;;15.88;6.80;;;23.60;99.90;;;;;;4991207;28;20024;-53
2022/06/29 04:26:07;;;;;;;20.75;7.95;;;23.60;99.90;;;;;;4984612;28;20396;-54
2022/06/29 04:28:32;;;;;;;16.70;7.57;;;23.70;99.90;;;;;;4974173;28;20030;-53
2022/06/29 04:31:00;;;;;;;20.98;7.40;;;23.60;99.90;;;;;;4974012;28;20150;-53
2022/06/29 04:33:26;;;;;;;14.60;6.10;;;23.60;99.90;;;;;;4974134;28;20026;-52
2022/06/29 04:35:52;;;;;;;15.30;6.18;;;23.60;99.90;;;;;;4960267;28;20035;-52
2022/06/29 04:38:18;;;;;;;20.58;6.65;;;23.70;99.90;;;;;;4973821;28;20070;-53
2022/06/29 04:40:43;;;;;;;15.77;6.43;;;23.70;99.90;;;;;;4972638;28;20035;-54
2022/06/29 04:43:09;;;;;;;17.40;7.70;;;23.70;99.90;;;;;;4973695;28;20479;-54
2022/06/29 04:48:19;;;;;;;15.88;6.68;;;23.70;99.90;;;;;;4972456;28;20061;-54
2022/06/29 04:50:45;;;;;;;17.02;6.68;;;23.70;99.90;;;;;;4973791;28;20058;-54
2022/06/29 04:53:11;;;;;;;20.48;6.05;;;23.70;99.90;;;;;;4973789;28;20027;-55
2022/06/29 04:55:37;;;;;;;19.98;6.97;;;23.70;99.90;;;;;;4973315;28;20073;-54
2022/06/29 04:58:02;;;;;;;29.83;6.90;;;23.70;99.90;;;;;;4973437;28;20085;-53
2022/06/29 05:00:28;;;;;;;16.98;5.97;;;23.70;99.90;;;;;;4973339;28;20074;-53
2022/06/29 05:02:54;;;;;;;20.90;6.50;;;23.70;99.90;;;;;;4990681;28;20018;-55
2022/06/29 05:05:19;;;;;;;19.52;5.97;;;23.70;99.90;;;;;;5000173;28;20454;-54
2022/06/29 05:07:47;;;;;;;17.00;5.50;;;23.70;99.90;;;;;;4987009;28;20022;-55
2022/06/29 05:10:13;;;;;;;16.17;5.68;;;23.70;99.90;;;;;;4959375;28;20027;-53
2022/06/29 05:12:38;;;;;;;15.45;6.53;;;23.70;99.90;;;;;;4973044;28;20499;-53
2022/06/29 05:15:06;;;;;;;18.48;7.47;;;23.70;99.90;;;;;;4988635;28;20472;-55
2022/06/29 05:17:36;;;;;;;20.33;6.32;;;23.70;99.90;;;;;;4973322;28;20033;-54
2022/06/29 05:20:07;;;;;;;22.08;6.95;;;23.70;99.90;;;;;;4973179;28;20038;-54
2022/06/29 05:22:33;;;;;;;19.70;6.55;;;23.70;99.90;;;;;;4978249;28;20371;-53
2022/06/29 05:24:58;;;;;;;21.67;7.32;;;23.70;99.90;;;;;;4981626;28;20026;-53
2022/06/29 05:27:24;;;;;;;23.05;7.13;;;23.70;99.90;;;;;;4972976;28;20122;-54
2022/06/29 05:29:50;;;;;;;20.33;6.93;;;23.70;99.90;;;;;;4972850;28;20034;-52
2022/06/29 05:32:16;;;;;;;18.80;6.30;;;23.70;99.90;;;;;;4972922;28;20023;-53
2022/06/29 05:34:42;;;;;;;25.90;7.95;;;23.80;99.90;;;;;;4972726;28;20065;-54
2022/06/29 05:37:08;;;;;;;16.05;5.60;;;23.70;99.90;;;;;;4972762;28;20034;-53
2022/06/29 05:39:34;;;;;;;19.25;6.93;;;23.80;99.90;;;;;;4985894;28;20125;-53
2022/06/29 05:41:59;;;;;;;15.18;5.63;;;23.80;99.90;;;;;;4973259;28;20381;-53
2022/06/29 05:44:25;;;;;;;14.18;6.20;;;23.80;99.90;;;;;;4972706;28;20033;-52
2022/06/29 05:46:51;;;;;;;16.13;6.38;;;23.90;99.90;;;;;;4972717;28;20101;-54
2022/06/29 05:49:17;;;;;;;22.13;7.38;;;23.90;99.90;;;;;;4971244;28;20025;-53
2022/06/29 05:51:42;;;;;;;13.93;6.53;;;23.80;99.90;;;;;;4971394;28;20041;-54
2022/06/29 05:54:08;;;;;;;18.10;6.93;;;23.80;99.90;;;;;;4985981;28;20029;-53
2022/06/29 05:56:34;;;;;;;13.70;5.68;;;23.80;99.90;;;;;;4972799;28;20023;-54
2022/06/29 05:58:59;;;;;;;20.38;6.70;;;23.80;99.90;;;;;;4972154;28;20022;-53
2022/06/29 06:01:25;;;;;;;15.90;7.63;;;23.80;99.90;;;;;;4970925;28;20108;-53
2022/06/29 06:03:51;;;;;;;18.35;7.63;;;23.80;99.90;;;;;;4972395;28;20097;-53
2022/06/29 06:06:17;;;;;;;24.17;8.38;;;23.80;99.90;;;;;;4970796;28;20023;-53
2022/06/29 06:08:42;;;;;;;19.20;7.68;;;23.80;99.90;;;;;;4972405;28;20396;-54
2022/06/29 06:11:08;;;;;;;16.75;6.88;;;23.80;99.90;;;;;;4972321;28;20026;-53
2022/06/29 06:13:34;;;;;;;22.00;7.38;;;23.70;99.90;;;;;;4976641;28;20081;-55
2022/06/29 06:16:00;;;;;;;18.42;7.50;;;23.70;99.90;;;;;;4983475;28;20109;-57
2022/06/29 06:18:26;;;;;;;20.02;7.57;;;23.70;99.90;;;;;;4971951;28;20468;-54
2022/06/29 06:20:51;;;;;;;16.05;7.00;;;23.60;99.90;;;;;;4972122;28;20583;-54
2022/06/29 06:23:17;;;;;;;24.92;7.47;;;23.50;99.90;;;;;;4972360;28;20050;-52
2022/06/29 06:25:43;;;;;;;17.67;6.90;;;23.50;99.90;;;;;;4971470;28;20027;-54
2022/06/29 06:28:09;;;;;;;19.00;7.40;;;23.60;99.90;;;;;;4972197;28;20031;-53
2022/06/29 06:30:34;;;;;;;27.77;9.75;;;23.60;99.90;;;;;;4972205;28;20061;-54
2022/06/29 06:33:00;;;;;;;19.15;7.28;;;23.60;99.90;;;;;;4972144;28;20022;-53
2022/06/29 06:35:26;;;;;;;22.00;6.68;;;23.40;99.90;;;;;;4972112;28;20108;-53
2022/06/29 06:37:52;;;;;;;19.23;8.45;;;23.40;99.90;;;;;;4972055;28;20106;-53
2022/06/29 06:43:03;;;;;;;18.48;7.65;;;23.40;99.90;;;;;;4972410;28;20033;-54
2022/06/29 06:45:29;;;;;;;22.65;9.07;;;23.20;99.90;;;;;;4971760;28;20278;-55
2022/06/29 06:47:55;;;;;;;35.83;9.90;;;23.30;99.90;;;;;;4972113;28;20038;-53
2022/06/29 06:50:21;;;;;;;23.17;10.93;;;23.40;99.90;;;;;;4971941;28;20031;-53
2022/06/29 06:52:47;;;;;;;24.80;9.20;;;23.30;99.90;;;;;;4971778;28;20031;-53
2022/06/29 06:55:13;;;;;;;24.63;10.55;;;23.30;99.90;;;;;;4981242;28;20423;-55
2022/06/29 06:57:39;;;;;;;27.15;12.18;;;23.30;99.90;;;;;;4975763;28;20027;-52
2022/06/29 07:00:06;;;;;;;33.28;12.45;;;23.40;99.90;;;;;;4979057;28;20056;-53
2022/06/29 07:02:31;;;;;;;28.70;10.00;;;23.40;99.90;;;;;;4991105;28;20026;-54
2022/06/29 07:04:57;;;;;;;25.90;12.85;;;23.40;99.90;;;;;;4973681;28;20019;-55
2022/06/29 07:07:24;;;;;;;33.67;12.57;;;23.40;99.90;;;;;;4971679;28;20026;-54
2022/06/29 07:09:50;;;;;;;31.92;15.27;;;23.40;99.90;;;;;;4971673;28;20050;-54
2022/06/29 07:12:15;;;;;;;31.80;15.40;;;23.30;99.90;;;;;;4971520;28;20454;-54
2022/06/29 07:14:41;;;;;;;34.97;15.77;;;23.30;99.90;;;;;;4971666;28;20098;-54
2022/06/29 07:17:07;;;;;;;32.67;16.27;;;23.30;99.90;;;;;;4971655;28;20503;-55
2022/06/29 07:19:33;;;;;;;34.95;17.10;;;23.30;99.90;;;;;;4971392;28;20039;-54
2022/06/29 07:21:58;;;;;;;40.28;17.75;;;23.30;99.90;;;;;;4971639;28;20465;-53
2022/06/29 07:24:24;;;;;;;25.23;12.70;;;23.20;99.90;;;;;;4970213;28;20026;-54
2022/06/29 07:26:50;;;;;;;48.97;20.00;;;23.20;99.90;;;;;;4971394;28;20031;-54
2022/06/29 07:29:16;;;;;;;29.65;15.93;;;23.20;99.90;;;;;;4971495;28;20043;-54
2022/06/29 07:31:41;;;;;;;27.13;12.88;;;23.20;99.90;;;;;;4988606;28;20435;-55
2022/06/29 07:34:07;;;;;;;30.08;13.32;;;23.20;99.90;;;;;;4983509;28;20058;-54
2022/06/29 07:36:33;;;;;;;34.80;14.95;;;23.20;99.90;;;;;;4973124;28;20361;-55
2022/06/29 07:38:58;;;;;;;36.40;15.82;;;23.20;99.90;;;;;;4974859;28;20420;-55
2022/06/29 07:41:24;;;;;;;29.65;14.48;;;23.20;99.90;;;;;;4974844;28;20412;-53
2022/06/29 07:43:50;;;;;;;32.70;15.68;;;23.20;99.90;;;;;;4974689;28;20109;-53
2022/06/29 07:46:16;;;;;;;31.10;15.23;;;23.30;99.90;;;;;;4974677;28;20042;-53
2022/06/29 07:48:42;;;;;;;29.02;15.70;;;23.30;99.90;;;;;;4974686;28;20019;-53
2022/06/29 07:51:08;;;;;;;34.83;16.60;;;23.10;99.90;;;;;;4974805;28;20388;-53
2022/06/29 07:53:34;;;;;;;28.38;16.13;;;23.20;99.90;;;;;;4974698;28;20027;-54
2022/06/29 07:56:00;;;;;;;31.70;17.40;;;23.10;99.90;;;;;;4974726;28;20540;-54
2022/06/29 07:58:26;;;;;;;29.73;17.30;;;23.10;99.90;;;;;;4974467;28;20358;-53
2022/06/29 08:00:53;;;;;;;28.83;16.10;;;23.10;99.90;;;;;;4973067;28;20098;-54
2022/06/29 08:03:19;;;;;;;26.70;15.45;;;23.10;99.90;;;;;;4974391;28;20106;-53
2022/06/29 08:05:45;;;;;;;34.38;17.58;;;23.10;99.90;;;;;;4974453;28;20035;-53
2022/06/29 08:08:11;;;;;;;34.67;16.90;;;23.20;99.90;;;;;;4975576;28;20033;-53
2022/06/29 08:10:37;;;;;;;34.08;15.95;;;23.20;99.90;;;;;;4993989;28;20073;-53
2022/06/29 08:13:03;;;;;;;28.90;16.23;;;23.20;99.90;;;;;;4993755;28;20026;-53
2022/06/29 08:15:29;;;;;;;28.40;16.42;;;23.20;99.90;;;;;;4990276;28;20095;-53
2022/06/29 08:17:55;;;;;;;34.63;17.45;;;23.20;99.90;;;;;;4974438;28;20023;-53
2022/06/29 08:20:21;;;;;;;39.30;17.27;;;23.20;99.90;;;;;;4974021;28;20045;-55
2022/06/29 08:22:47;;;;;;;28.50;15.57;;;23.20;99.90;;;;;;4974043;28;20078;-56
2022/06/29 08:25:14;;;;;;;23.85;14.23;;;23.20;99.90;;;;;;4983377;28;20033;-54
2022/06/29 08:27:40;;;;;;;22.05;13.70;;;23.30;99.90;;;;;;4978641;28;20461;-54
2022/06/29 08:30:08;;;;;;;24.38;14.15;;;23.30;99.90;;;;;;4973998;28;20026;-55
2022/06/29 08:32:34;;;;;;;20.67;14.77;;;23.40;99.90;;;;;;4988941;28;20077;-55
2022/06/29 08:35:01;;;;;;;25.42;15.15;;;23.50;99.90;;;;;;4973853;28;20130;-57
2022/06/29 08:37:30;;;;;;;20.13;12.45;;;23.40;99.90;;;;;;4972862;28;20468;-53
2022/06/29 08:39:56;;;;;;;19.55;11.55;;;23.30;99.90;;;;;;4973783;28;20047;-54
2022/06/29 08:42:23;;;;;;;24.70;13.75;;;23.30;99.90;;;;;;4973707;28;20026;-52
2022/06/29 08:44:50;;;;;;;27.42;14.73;;;23.20;99.90;;;;;;4972626;28;20034;-53
2022/06/29 08:47:16;;;;;;;26.73;14.50;;;23.10;99.90;;;;;;4973177;28;20528;-54
2022/06/29 08:49:44;;;;;;;20.90;13.32;;;23.10;99.90;;;;;;4973824;28;20028;-53
2022/06/29 08:52:10;;;;;;;;;;;23.10;99.90;;;;;;4974119;28;20030;-53
2022/06/29 08:54:41;;;;;;;19.05;11.93;;;23.10;99.90;;;;;;4973447;28;20002;-52
2022/06/29 08:57:08;;;;;;;16.38;10.45;;;23.10;99.90;;;;;;4973483;28;20078;-52
2022/06/29 08:59:34;;;;;;;22.95;12.80;;;23.10;99.90;;;;;;4973306;28;20066;-53
2022/06/29 09:02:01;;;;;;;20.73;10.77;;;23.20;99.90;;;;;;4973488;28;20094;-53
2022/06/29 09:04:27;;;;;;;22.70;12.05;;;23.20;99.90;;;;;;4986798;28;20026;-54
2022/06/29 09:06:55;;;;;;;16.10;9.90;;;23.20;99.90;;;;;;4973262;28;20093;-53
2022/06/29 09:09:22;;;;;;;15.35;9.93;;;23.20;99.90;;;;;;4984622;28;20057;-54
2022/06/29 09:11:53;;;;;;;20.52;11.02;;;23.20;99.90;;;;;;4974956;28;20057;-53
2022/06/29 09:14:23;;;;;;;15.32;9.15;;;23.20;99.90;;;;;;4973133;28;20019;-53
2022/06/29 09:16:56;;;;;;;16.08;8.82;;;23.10;99.90;;;;;;4987941;28;20466;-53
2022/06/29 09:19:27;;;;;;;17.15;10.00;;;23.10;99.90;;;;;;4959915;28;20456;-54
2022/06/29 09:21:54;;;;;;;14.75;9.07;;;23.10;99.90;;;;;;4973077;28;20483;-54
2022/06/29 09:24:23;;;;;;;14.07;8.80;;;23.20;99.90;;;;;;4972969;28;20023;-53
2022/06/29 09:26:54;;;;;;;14.93;9.68;;;23.30;99.90;;;;;;4972886;28;20065;-54
2022/06/29 09:29:31;;;;;;;12.85;9.27;;;23.30;99.90;;;;;;4972730;28;20030;-54
2022/06/29 09:32:05;;;;;;;13.25;8.40;;;23.40;99.90;;;;;;4973102;28;20037;-54
2022/06/29 09:34:50;;;;;;;12.07;8.70;;;23.30;99.90;;;;;;4973131;28;20027;-54
2022/06/29 09:37:22;;;;;;;20.33;11.88;;;23.30;99.90;;;;;;4968896;28;20034;-54
2022/06/29 09:39:56;;;;;;;15.73;11.10;;;23.20;99.90;;;;;;4979770;28;20023;-55
2022/06/29 09:42:26;;;;;;;16.13;12.65;;;23.20;99.90;;;;;;4985914;28;20027;-54
2022/06/29 09:44:52;;;;;;;14.25;9.45;;;23.20;99.90;;;;;;4972723;28;20281;-53
2022/06/29 09:47:21;;;;;;;15.20;10.20;;;23.20;99.90;;;;;;4984585;28;20022;-53
2022/06/29 09:49:48;;;;;;;15.38;10.93;;;23.30;99.90;;;;;;4972559;28;20035;-54
2022/06/29 09:52:15;;;;;;;11.85;10.60;;;23.40;99.90;;;;;;4972434;28;20022;-54
2022/06/29 09:54:46;;;;;;;24.00;19.88;;;23.40;99.90;;;;;;4972395;28;20413;-54
2022/06/29 09:57:13;;;;;;;17.58;14.38;;;23.40;99.90;;;;;;4972297;28;20022;-54
2022/06/29 10:02:40;;;;;;;19.38;13.45;;;23.50;99.90;;;;;;4972794;28;20058;-53
2022/06/29 10:05:15;;;;;;;21.52;13.73;;;23.60;99.90;;;;;;4959550;28;20089;-54
2022/06/29 10:07:47;;;;;;;27.00;21.23;;;23.60;99.90;;;;;;4985025;28;20022;-54
2022/06/29 10:10:17;;;;;;;23.10;17.30;;;23.60;99.90;;;;;;4959007;28;20022;-51
2022/06/29 10:16:14;;;;;;;15.00;11.35;;;23.50;99.90;;;;;;4972174;28;20089;-53
2022/06/29 10:18:46;;;;;;;16.52;12.48;;;23.50;99.90;;;;;;4971878;28;20412;-53
2022/06/29 10:21:22;;;;;;;15.27;10.75;;;23.60;99.90;;;;;;4970585;28;20042;-54
2022/06/29 10:23:53;;;;;;;20.85;11.02;;;23.70;99.90;;;;;;4971284;28;20027;-52
2022/06/29 10:26:37;;;;;;;21.02;11.98;;;23.70;99.90;;;;;;4969198;28;20049;-53
2022/06/29 10:29:06;;;;;;;16.00;12.27;;;23.70;99.90;;;;;;4970968;28;20025;-54
2022/06/29 10:31:50;;;;;;;17.27;12.07;;;23.70;99.90;;;;;;4977435;28;20023;-54
2022/06/29 10:37:14;;;;;;;25.42;15.02;;;23.30;99.90;;;;;;4970745;28;20388;-54
2022/06/29 10:39:45;;;;;;;18.10;14.57;;;23.10;99.90;;;;;;4970770;28;20129;-53
2022/06/29 10:45:17;;;;;;;20.67;14.35;;;22.90;99.90;;;;;;4971382;28;20453;-52
2022/06/29 10:47:55;;;;;;;20.58;13.63;;;22.90;99.90;;;;;;4971160;28;20026;-52
2022/06/29 10:50:26;;;;;;;22.23;14.07;;;22.90;99.90;;;;;;4971291;28;20102;-52
2022/06/29 10:52:53;;;;;;;17.88;11.55;;;22.80;99.90;;;;;;4971302;28;20034;-54
2022/06/29 10:55:19;;;;;;;;;;;22.80;99.90;;;;;;4969898;28;20080;-55
2022/06/29 10:57:46;;;;;;;29.73;15.43;;;22.80;99.90;;;;;;4971191;28;19906;-58
2022/06/29 11:00:17;;;;;;;42.93;15.07;;;22.90;99.90;;;;;;4969638;28;20106;-59
2022/06/29 11:02:44;;;;;;;20.88;13.40;;;22.90;99.90;;;;;;4971281;28;20105;-59
2022/06/29 11:05:11;;;;;;;23.50;13.67;;;23.00;99.90;;;;;;4971327;28;20023;-59
2022/06/29 11:13:11;;;;;;;26.83;13.35;;;23.10;99.90;;;;;;4975681;28;20034;-59
2022/06/29 11:15:56;;;;;;;21.35;14.55;;;23.20;99.90;;;;;;4964219;28;20114;-55
2022/06/29 11:18:28;;;;;;;23.10;13.15;;;23.10;99.90;;;;;;4974852;28;20106;-56
2022/06/29 11:21:02;;;;;;;20.10;12.55;;;23.10;99.90;;;;;;4970752;28;20039;-51
2022/06/29 11:23:30;;;;;;;23.38;11.00;;;23.10;99.90;;;;;;4971180;28;20023;-51
2022/06/29 11:25:56;;;;;;;;;;;23.20;99.90;;;;;;4970936;28;20489;-52
2022/06/29 11:28:25;;;;;;;21.92;10.82;;;23.20;99.90;;;;;;4971337;28;19906;-53
2022/06/29 11:31:04;;;;;;;18.70;11.65;;;23.20;99.90;;;;;;4971547;28;20027;-51
2022/06/29 11:33:33;;;;;;;21.58;11.95;;;23.30;99.90;;;;;;4975409;28;20106;-55
2022/06/29 11:36:09;;;;;;;21.17;14.23;;;23.30;99.90;;;;;;4972909;28;20045;-55
2022/06/29 11:38:43;;;;;;;20.38;10.55;;;23.40;99.90;;;;;;4971670;28;20560;-54
2022/06/29 11:41:16;;;;;;;26.75;17.40;;;23.50;99.90;;;;;;4971218;28;20073;-54
2022/06/29 11:43:43;;;;;;;25.77;15.73;;;23.50;99.90;;;;;;4972468;28;20015;-53
2022/06/29 11:46:21;;;;;;;23.10;13.88;;;23.60;99.90;;;;;;4972697;28;20030;-51
2022/06/29 11:51:47;;;;;;;18.70;11.85;;;23.60;99.90;;;;;;4972889;28;20029;-55
2022/06/29 11:54:12;;;;;;;20.63;11.02;;;23.80;99.90;;;;;;4972791;28;20564;-55
2022/06/29 11:56:38;;;;;;;23.65;10.70;;;23.80;99.90;;;;;;4971892;28;20105;-56
2022/06/29 11:59:05;;;;;;;20.67;10.25;;;23.70;99.90;;;;;;4971829;28;20041;-61
2022/06/29 12:01:31;;;;;;;17.23;11.25;;;23.70;99.90;;;;;;4965135;28;20047;-57
2022/06/29 12:04:00;;;;;;;20.25;10.77;;;23.70;99.90;;;;;;4970639;28;20489;-57
2022/06/29 12:06:35;;;;;;;25.15;11.50;;;23.70;99.90;;;;;;4971790;28;20412;-54
2022/06/29 12:09:01;;;;;;;19.95;11.88;;;23.70;99.90;;;;;;4970528;28;20023;-53
2022/06/29 12:11:26;;;;;;;24.90;15.05;;;23.70;99.90;;;;;;4971777;28;20487;-53
2022/06/29 12:13:52;;;;;;;20.10;12.93;;;23.80;99.90;;;;;;4970821;28;20031;-56
2022/06/29 12:16:18;;;;;;;21.35;11.90;;;23.70;99.90;;;;;;4968025;28;20555;-56
2022/06/29 12:18:45;;;;;;;21.65;14.93;;;23.80;99.90;;;;;;4971624;28;20051;-53
2022/06/29 12:21:11;;;;;;;53.93;32.33;;;23.80;99.90;;;;;;4986360;28;20436;-53
2022/06/29 12:23:37;;;;;;;34.08;19.65;;;23.90;99.90;;;;;;4970400;28;20022;-55
2022/06/29 12:26:03;;;;;;;32.92;18.13;;;23.90;99.90;;;;;;4961048;28;20090;-53
2022/06/29 12:28:29;;;;;;;41.80;21.55;;;24.00;99.90;;;;;;4971185;28;20566;-57
2022/06/29 12:30:55;;;;;;;25.50;16.77;;;24.00;99.90;;;;;;4971057;28;20109;-55
2022/06/29 12:33:21;;;;;;;27.77;18.35;;;23.90;99.90;;;;;;4969910;28;20560;-57
2022/06/29 12:35:49;;;;;;;26.77;14.73;;;23.80;99.90;;;;;;4967118;28;20441;-54
2022/06/29 12:38:15;;;;;;;20.75;11.75;;;23.80;99.90;;;;;;4971388;28;20027;-57
2022/06/29 12:40:41;;;;;;;35.47;16.80;;;23.90;99.90;;;;;;4968915;28;20106;-59
2022/06/29 12:43:07;;;;;;;26.17;12.60;;;23.80;99.90;;;;;;4967691;28;20023;-60
2022/06/29 12:45:33;;;;;;;24.85;14.18;;;23.90;99.90;;;;;;4970728;28;20409;-58
2022/06/29 12:47:59;;;;;;;22.98;12.88;;;23.90;99.90;;;;;;4970549;28;20457;-58
2022/06/29 12:50:25;;;;;;;22.90;11.95;;;24.00;99.90;;;;;;4968082;28;20031;-59
2022/06/29 12:52:51;;;;;;;22.73;14.40;;;24.00;99.90;;;;;;4969542;28;20101;-58
2022/06/29 12:55:19;;;;;;;22.45;13.63;;;24.00;99.90;;;;;;4970472;28;20050;-59
2022/06/29 12:57:45;;;;;;;30.80;16.92;;;24.00;99.90;;;;;;4971062;28;20216;-59
2022/06/29 13:00:13;;;;;;;18.92;11.90;;;24.00;99.90;;;;;;4969655;28;20061;-60
2022/06/29 13:02:39;;;;;;;;;;;24.10;99.90;;;;;;4971208;28;20488;-57
2022/06/29 13:05:07;;;;;;;22.40;12.32;;;24.10;99.90;;;;;;4971416;28;19906;-56
2022/06/29 13:07:37;;;;;;;20.52;11.18;;;24.10;99.90;;;;;;4970428;28;20026;-55